Time;durP1;ratioP1;P1;durP2;ratioP2;P2;SDS_P1;SDS_P2;PMS_P1;PMS_P2;Temp;Humidity;BMP_temperature;BMP_pressure;BME280_temperature;BME280_humidity;BME280_pressure;Samples;Min_cycle;Max_cycle;Signal;HPM_P1;HPM_P2
2023/09/16 00:01:28;;;;;;;5.72;2.88;;;;;;;15.32;75.45;101265.44;5084463;28;20149;-74
2023/09/16 00:03:56;;;;;;;4.70;2.88;;;;;;;15.29;75.62;101260.34;5082292;28;20097;-71
2023/09/16 00:06:23;;;;;;;6.20;3.25;;;;;;;15.26;75.52;101263.19;5067955;28;20372;-73
2023/09/16 00:08:51;;;;;;;5.20;2.60;;;;;;;15.22;75.64;101267.00;5086658;28;20133;-73
2023/09/16 00:11:18;;;;;;;4.72;2.83;;;;;;;15.17;75.42;101259.38;5069039;28;20064;-75
2023/09/16 00:13:46;;;;;;;7.25;2.90;;;;;;;15.16;75.80;101265.63;5067065;28;20079;-74
2023/09/16 00:16:15;;;;;;;4.88;2.80;;;;;;;15.16;75.57;101270.94;5064934;28;20525;-74
2023/09/16 00:18:43;;;;;;;4.45;2.88;;;;;;;15.14;75.90;101267.56;5084402;28;20058;-73
2023/09/16 00:21:10;;;;;;;6.57;2.75;;;;;;;15.12;75.54;101262.34;5086248;28;20072;-76
2023/09/16 00:23:38;;;;;;;5.70;2.83;;;;;;;15.09;76.04;101265.22;5065948;28;20083;-72
2023/09/16 00:26:05;;;;;;;6.32;3.20;;;;;;;15.06;75.85;101265.41;5085729;28;20044;-73
2023/09/16 00:28:35;;;;;;;8.85;3.20;;;;;;;15.04;75.92;101255.84;5067331;28;21350;-74
2023/09/16 00:31:03;;;;;;;5.15;2.83;;;;;;;15.03;75.80;101259.47;5068388;28;20153;-72
2023/09/16 00:33:31;;;;;;;7.80;3.15;;;;;;;14.99;76.13;101258.81;5085218;28;20101;-75
2023/09/16 00:35:59;;;;;;;7.00;2.83;;;;;;;14.97;76.49;101259.88;5066494;28;20055;-72
2023/09/16 00:38:26;;;;;;;4.93;2.67;;;;;;;14.94;76.29;101255.63;5066033;28;20064;-75
2023/09/16 00:40:54;;;;;;;4.57;2.83;;;;;;;14.92;76.06;101262.84;5086277;28;20149;-77
2023/09/16 00:43:21;;;;;;;6.32;3.00;;;;;;;14.88;76.49;101256.03;5081292;28;20060;-73
2023/09/16 00:45:48;;;;;;;6.82;4.03;;;;;;;14.86;76.42;101255.28;5067607;28;20056;-76
2023/09/16 00:48:17;;;;;;;5.47;2.88;;;;;;;14.84;76.57;101254.53;5068525;28;20044;-75
2023/09/16 00:50:45;;;;;;;4.40;2.70;;;;;;;14.82;76.46;101248.50;5067387;28;20068;-75
2023/09/16 00:53:13;;;;;;;11.25;3.95;;;;;;;14.80;76.89;101245.94;5067004;28;20490;-75
2023/09/16 00:55:41;;;;;;;5.47;3.10;;;;;;;14.78;76.56;101239.91;5067804;28;20052;-76
2023/09/16 00:58:11;;;;;;;5.43;3.20;;;;;;;14.76;76.19;101240.94;5050543;28;20071;-74
2023/09/16 01:00:39;;;;;;;6.88;3.25;;;;;;;14.73;76.88;101244.66;5050934;28;20107;-76
2023/09/16 01:03:06;;;;;;;7.13;3.05;;;;;;;14.71;76.52;101240.41;5076367;28;20441;-75
2023/09/16 01:05:34;;;;;;;4.65;3.30;;;;;;;14.68;76.81;101246.78;5075015;28;20044;-73
2023/09/16 01:08:02;;;;;;;7.93;3.58;;;;;;;14.66;76.90;101244.22;5054054;28;20076;-72
2023/09/16 01:10:30;;;;;;;6.25;3.30;;;;;;;14.64;77.26;101240.81;5087683;28;20118;-75
2023/09/16 01:12:57;;;;;;;8.50;3.03;;;;;;;14.62;76.69;101231.28;5050327;28;20052;-75
2023/09/16 01:15:31;;;;;;;4.53;2.80;;;;;;;14.60;76.82;101236.69;5070827;28;20716;-73
2023/09/16 01:18:07;;;;;;;7.05;2.95;;;;;;;14.60;76.72;101236.69;5066870;28;20086;-73
2023/09/16 01:20:35;;;;;;;6.35;3.33;;;;;;;14.58;77.02;101235.06;5056577;28;20131;-75
2023/09/16 01:23:02;;;;;;;6.28;2.65;;;;;;;14.54;76.92;101226.47;5087869;28;20051;-74
2023/09/16 01:25:29;;;;;;;11.45;3.42;;;;;;;14.53;76.71;101221.28;5086598;28;21807;-74
2023/09/16 01:27:57;;;;;;;6.78;3.22;;;;;;;14.52;76.97;101224.88;5084274;28;20841;-73
2023/09/16 01:30:26;;;;;;;4.32;2.70;;;;;;;14.49;76.62;101228.56;5087137;28;20668;-74
2023/09/16 01:33:00;;;;;;;7.75;3.08;;;;;;;14.44;76.47;101220.91;5071505;28;20049;-75
2023/09/16 01:35:29;;;;;;;8.25;3.58;;;;;;;14.42;77.06;101220.16;5069833;28;20044;-74
2023/09/16 01:37:59;;;;;;;10.20;2.80;;;;;;;14.40;76.78;101222.03;5070087;28;20557;-73
2023/09/16 01:40:26;;;;;;;5.95;2.97;;;;;;;14.38;77.04;101215.16;5070426;28;20151;-72
2023/09/16 01:42:54;;;;;;;6.88;3.33;;;;;;;14.38;76.73;101210.72;5050028;28;20145;-76
2023/09/16 01:45:22;;;;;;;6.90;3.35;;;;;;;14.37;76.93;101213.47;5085246;28;20080;-74
2023/09/16 01:47:49;;;;;;;6.97;3.28;;;;;;;14.34;77.13;101211.00;5080758;28;20072;-77
2023/09/16 01:50:16;;;;;;;4.95;3.22;;;;;;;14.33;76.90;101214.63;5085087;28;20048;-73
2023/09/16 01:52:45;;;;;;;6.20;3.35;;;;;;;14.30;76.60;101213.00;5054336;28;20539;-75
2023/09/16 01:55:12;;;;;;;6.45;3.42;;;;;;;14.29;76.89;101210.47;5090267;28;20135;-71
2023/09/16 01:57:39;;;;;;;6.70;3.05;;;;;;;14.26;76.41;101202.72;5055601;28;20142;-75
2023/09/16 02:00:07;;;;;;;7.45;3.25;;;;;;;14.25;76.73;101208.97;5066145;28;20163;-72
2023/09/16 02:02:34;;;;;;;10.15;2.85;;;;;;;14.21;76.82;101205.66;5071386;28;20080;-75
2023/09/16 02:05:02;;;;;;;8.25;3.13;;;;;;;14.20;76.79;101206.63;5069163;28;20575;-74
2023/09/16 02:07:29;;;;;;;7.03;3.40;;;;;;;14.19;77.05;101205.78;5071250;28;20558;-68
2023/09/16 02:09:56;;;;;;;6.90;3.33;;;;;;;14.23;76.93;101202.91;5087432;28;20113;-75
2023/09/16 02:12:24;;;;;;;7.13;3.53;;;;;;;14.19;77.22;101199.63;5087282;28;20052;-74
2023/09/16 02:14:51;;;;;;;6.15;3.50;;;;;;;14.23;76.77;101200.25;5073121;28;20135;-75
2023/09/16 02:17:19;;;;;;;11.35;2.95;;;;;;;14.23;76.38;101201.13;5087027;28;20127;-72
2023/09/16 02:19:46;;;;;;;8.15;3.00;;;;;;;14.15;76.64;101201.63;5087740;28;20056;-72
2023/09/16 02:22:14;;;;;;;5.05;3.03;;;;;;;14.15;76.30;101191.03;5066276;28;20641;-74
2023/09/16 02:24:42;;;;;;;6.13;3.13;;;;;;;14.17;76.30;101196.22;5088309;28;20119;-74
2023/09/16 02:27:09;;;;;;;4.20;2.60;;;;;;;14.11;76.44;101197.47;5086264;28;20076;-75
2023/09/16 02:29:36;;;;;;;8.02;2.92;;;;;;;14.13;76.30;101197.34;5086677;28;20056;-74
2023/09/16 02:32:04;;;;;;;5.43;2.78;;;;;;;14.10;76.10;101189.63;5061052;28;20072;-73
2023/09/16 02:34:35;;;;;;;6.22;2.85;;;;;;;14.05;76.76;101197.00;5087311;28;20079;-75
2023/09/16 02:37:02;;;;;;;6.03;3.13;;;;;;;14.00;76.81;101199.09;5071976;28;20567;-75
2023/09/16 02:39:30;;;;;;;7.22;3.45;;;;;;;13.97;77.05;101194.88;5052640;28;20056;-69
2023/09/16 02:41:57;;;;;;;10.27;3.90;;;;;;;13.93;77.14;101188.06;5065660;28;20138;-75
2023/09/16 02:44:24;;;;;;;5.50;2.80;;;;;;;13.93;76.88;101202.13;5084597;28;20055;-74
2023/09/16 02:46:52;;;;;;;8.88;3.28;;;;;;;13.92;77.05;101194.31;5071342;28;20460;-74
2023/09/16 02:49:20;;;;;;;6.53;3.25;;;;;;;13.88;76.54;101185.72;5048670;28;20516;-76
2023/09/16 02:51:48;;;;;;;5.28;3.30;;;;;;;13.85;77.10;101179.75;5086049;28;20081;-74
2023/09/16 02:54:16;;;;;;;3.95;2.95;;;;;;;13.83;76.60;101189.59;5086546;28;20147;-70
2023/09/16 02:56:43;;;;;;;6.22;3.30;;;;;;;13.83;76.92;101179.03;5084206;28;20091;-75
2023/09/16 02:59:11;;;;;;;4.82;2.95;;;;;;;13.81;77.14;101175.59;5090759;28;20080;-75
2023/09/16 03:01:38;;;;;;;6.60;3.17;;;;;;;13.78;76.37;101184.59;5049988;28;20071;-72
2023/09/16 03:04:05;;;;;;;4.43;3.65;;;;;;;13.76;77.02;101183.84;5086649;28;20058;-75
2023/09/16 03:06:33;;;;;;;5.25;3.72;;;;;;;13.75;76.96;101176.84;5069798;28;20520;-74
2023/09/16 03:09:00;;;;;;;7.15;3.60;;;;;;;13.76;77.03;101177.69;5086615;28;20135;-74
2023/09/16 03:11:27;;;;;;;4.53;3.15;;;;;;;13.74;77.62;101177.81;5085880;28;20052;-76
2023/09/16 03:13:55;;;;;;;6.57;3.22;;;;;;;13.74;77.21;101176.97;5050051;28;20135;-73
2023/09/16 03:16:23;;;;;;;6.95;3.72;;;;;;;13.74;77.04;101169.88;5068280;28;20091;-74
2023/09/16 03:18:52;;;;;;;6.15;3.38;;;;;;;13.67;77.00;101169.38;5085769;28;20134;-73
2023/09/16 03:21:23;;;;;;;5.75;3.00;;;;;;;13.64;77.18;101169.59;5081581;28;20075;-73
2023/09/16 03:23:50;;;;;;;5.95;3.45;;;;;;;13.61;77.16;101168.94;5064554;28;20411;-73
2023/09/16 03:26:18;;;;;;;7.30;3.65;;;;;;;13.60;77.15;101173.38;5048821;28;20131;-75
2023/09/16 03:28:45;;;;;;;9.23;3.50;;;;;;;13.58;77.54;101167.31;5087208;28;20055;-75
2023/09/16 03:31:15;;;;;;;4.65;2.95;;;;;;;13.57;77.81;101175.38;5068571;28;20522;-74
2023/09/16 03:33:42;;;;;;;4.97;2.88;;;;;;;13.53;78.17;101168.56;5062129;28;20105;-74
2023/09/16 03:36:10;;;;;;;8.25;3.40;;;;;;;13.56;77.51;101168.38;5087518;28;20565;-75
2023/09/16 03:38:48;;;;;;;4.32;2.97;;;;;;;13.53;78.17;101164.13;5066782;28;20134;-74
2023/09/16 03:41:16;;;;;;;7.30;3.65;;;;;;;13.51;78.03;101163.38;5068690;28;20428;-75
2023/09/16 03:43:44;;;;;;;8.48;2.80;;;;;;;13.50;77.99;101163.47;5086635;28;20079;-74
2023/09/16 03:46:14;;;;;;;8.70;3.60;;;;;;;13.52;77.66;101157.13;5087722;28;20052;-73
2023/09/16 03:48:42;;;;;;;9.65;3.03;;;;;;;13.52;77.53;101153.66;5081493;28;20450;-73
2023/09/16 03:51:09;;;;;;;5.47;3.15;;;;;;;13.49;77.90;101145.91;5087407;28;20517;-76
2023/09/16 03:53:37;;;;;;;5.05;2.83;;;;;;;13.48;78.00;101137.13;5071280;28;20040;-74
2023/09/16 03:56:11;;;;;;;8.52;3.72;;;;;;;13.46;78.14;101132.84;5051246;28;20040;-73
2023/09/16 03:58:39;;;;;;;11.82;4.07;;;;;;;13.41;77.56;101135.78;5069194;28;20144;-75
2023/09/16 04:01:06;;;;;;;7.80;3.25;;;;;;;13.39;78.08;101129.75;5060898;28;20040;-76
2023/09/16 04:03:33;;;;;;;6.60;3.58;;;;;;;13.37;78.08;101136.91;5066819;28;20144;-74
2023/09/16 04:06:03;;;;;;;8.18;4.15;;;;;;;13.38;78.00;101136.00;5047430;28;20139;-74
2023/09/16 04:08:31;;;;;;;9.30;4.03;;;;;;;13.37;78.28;101129.00;5087363;28;20086;-72
2023/09/16 04:11:08;;;;;;;6.95;3.15;;;;;;;13.34;78.11;101127.41;5070489;28;20083;-73
2023/09/16 04:13:36;;;;;;;7.68;3.67;;;;;;;13.33;77.97;101135.44;5067194;28;20071;-75
2023/09/16 04:16:03;;;;;;;8.80;3.53;;;;;;;13.27;78.39;101135.81;5084109;28;20060;-74
2023/09/16 04:18:31;;;;;;;6.18;3.42;;;;;;;13.26;78.43;101134.09;5086758;28;20088;-74
2023/09/16 04:20:58;;;;;;;12.40;3.33;;;;;;;13.23;78.68;101139.56;5072650;28;20159;-76
2023/09/16 04:23:25;;;;;;;4.95;2.70;;;;;;;13.23;78.31;101142.22;5081799;28;20079;-75
2023/09/16 04:25:54;;;;;;;8.95;3.58;;;;;;;13.21;78.86;101137.00;5065184;28;20580;-75
2023/09/16 04:28:22;;;;;;;10.10;3.63;;;;;;;13.20;78.79;101132.66;5086355;28;20547;-72
2023/09/16 04:30:50;;;;;;;6.93;3.78;;;;;;;13.21;79.36;101139.66;5067169;28;20088;-73
2023/09/16 04:33:19;;;;;;;11.52;4.05;;;;;;;13.21;78.92;101138.81;5068375;28;20071;-73
2023/09/16 04:35:48;;;;;;;4.78;3.50;;;;;;;13.20;78.72;101137.09;5084171;28;20048;-74
2023/09/16 04:38:16;;;;;;;7.55;3.50;;;;;;;13.19;78.94;101136.22;5071854;28;20048;-74
2023/09/16 04:40:44;;;;;;;9.50;3.47;;;;;;;13.16;79.39;101139.94;5073439;28;20112;-74
2023/09/16 04:43:12;;;;;;;8.40;3.80;;;;;;;13.15;79.25;101145.31;5074570;28;20036;-74
2023/09/16 04:45:48;;;;;;;9.00;4.00;;;;;;;13.15;79.62;101140.03;5089910;28;20068;-76
2023/09/16 04:48:17;;;;;;;9.02;3.85;;;;;;;13.14;79.88;101133.88;5074257;28;20036;-76
2023/09/16 04:50:45;;;;;;;6.35;3.85;;;;;;;13.13;79.94;101134.81;5071902;28;20102;-74
2023/09/16 04:53:13;;;;;;;8.98;3.83;;;;;;;13.15;79.67;101132.94;5060057;28;20069;-74
2023/09/16 04:55:43;;;;;;;7.88;3.95;;;;;;;13.16;79.79;101137.28;5090067;28;20064;-76
2023/09/16 04:58:11;;;;;;;7.97;3.78;;;;;;;13.14;79.85;101133.88;5091885;28;20048;-75
2023/09/16 05:00:38;;;;;;;10.45;4.28;;;;;;;13.14;79.59;101141.81;5056101;28;20131;-73
2023/09/16 05:03:06;;;;;;;6.50;3.63;;;;;;;13.17;79.85;101146.06;5056801;28;20044;-77
2023/09/16 05:05:35;;;;;;;6.28;3.55;;;;;;;13.18;79.65;101147.75;5057907;28;20097;-73
2023/09/16 05:08:02;;;;;;;9.32;3.75;;;;;;;13.21;79.18;101144.09;5086415;28;20139;-72
2023/09/16 05:10:29;;;;;;;8.93;3.78;;;;;;;13.24;79.56;101141.25;5092332;28;20436;-74
2023/09/16 05:12:57;;;;;;;6.65;3.90;;;;;;;13.27;79.55;101146.38;5072472;28;20055;-75
2023/09/16 05:15:26;;;;;;;8.57;4.00;;;;;;;13.30;79.10;101148.84;5068324;28;20289;-77
2023/09/16 05:17:54;;;;;;;11.27;4.32;;;;;;;13.35;78.81;101154.69;5089463;28;20127;-73
2023/09/16 05:20:21;;;;;;;8.40;3.88;;;;;;;13.38;78.73;101147.41;5087938;28;20089;-75
2023/09/16 05:22:49;;;;;;;6.32;3.65;;;;;;;13.41;78.94;101149.84;5067558;28;20168;-74
2023/09/16 05:25:17;;;;;;;6.25;3.95;;;;;;;13.42;78.38;101151.56;5082731;28;20075;-75
2023/09/16 05:27:44;;;;;;;9.75;4.38;;;;;;;13.43;78.66;101153.28;5085229;28;20063;-75
2023/09/16 05:30:11;;;;;;;9.40;5.03;;;;;;;13.47;78.46;101153.09;5065740;28;20452;-74
2023/09/16 05:32:39;;;;;;;8.15;4.25;;;;;;;13.49;78.23;101151.19;5089446;28;20145;-74
2023/09/16 05:35:07;;;;;;;8.63;4.47;;;;;;;13.54;78.29;101152.59;5088871;28;20495;-73
2023/09/16 05:37:34;;;;;;;7.32;4.13;;;;;;;13.60;78.25;101151.38;5054118;28;20074;-75
2023/09/16 05:40:01;;;;;;;5.97;4.00;;;;;;;13.65;77.28;101150.13;5068776;28;20047;-75
2023/09/16 05:42:29;;;;;;;9.73;3.88;;;;;;;13.68;77.62;101152.56;5052570;28;20055;-75
2023/09/16 05:44:56;;;;;;;11.38;4.70;;;;;;;13.73;77.16;101149.63;5084221;28;20544;-75
2023/09/16 05:47:24;;;;;;;6.03;3.53;;;;;;;13.76;77.14;101151.22;5052266;28;20614;-74
2023/09/16 05:49:52;;;;;;;6.47;4.30;;;;;;;13.77;77.39;101145.00;5085138;28;20097;-72
2023/09/16 05:52:19;;;;;;;6.57;4.05;;;;;;;13.84;76.78;101138.38;5070305;28;20079;-74
2023/09/16 05:54:46;;;;;;;7.85;3.97;;;;;;;13.88;76.69;101146.00;5064873;28;20075;-73
2023/09/16 05:57:14;;;;;;;10.10;4.60;;;;;;;13.95;76.49;101157.03;5065955;28;20419;-74
2023/09/16 05:59:41;;;;;;;7.93;3.85;;;;;;;14.01;76.41;101159.31;5087556;28;20055;-76
2023/09/16 06:02:08;;;;;;;6.65;3.90;;;;;;;14.10;76.12;101158.72;5085787;28;20101;-73
2023/09/16 06:04:36;;;;;;;13.90;4.35;;;;;;;14.18;75.54;101152.88;5076884;28;20090;-76
2023/09/16 06:07:03;;;;;;;8.10;4.13;;;;;;;14.24;75.09;101155.16;5092876;28;20048;-73
2023/09/16 06:09:30;;;;;;;9.15;4.43;;;;;;;14.31;74.95;101160.88;5091259;28;20090;-73
2023/09/16 06:11:58;;;;;;;10.30;5.05;;;;;;;14.37;74.83;101157.84;5089272;28;20080;-75
2023/09/16 06:14:25;;;;;;;6.68;4.35;;;;;;;14.43;74.55;101165.38;5066210;28;20058;-74
2023/09/16 06:16:53;;;;;;;8.18;4.22;;;;;;;14.42;74.56;101169.81;5052353;28;20048;-76
2023/09/16 06:19:20;;;;;;;9.82;4.63;;;;;;;14.49;73.91;101159.69;5048525;28;20044;-75
2023/09/16 06:21:48;;;;;;;11.35;4.53;;;;;;;14.61;73.66;101166.81;5084599;28;20149;-75
2023/09/16 06:24:15;;;;;;;10.40;4.80;;;;;;;14.78;73.24;101163.03;5051463;28;20072;-74
2023/09/16 06:26:42;;;;;;;6.65;3.53;;;;;;;14.84;72.99;101164.41;5086520;28;20109;-77
2023/09/16 06:29:10;;;;;;;8.35;4.00;;;;;;;14.92;72.84;101168.25;5087975;28;20094;-74
2023/09/16 06:31:37;;;;;;;7.55;4.40;;;;;;;15.01;72.33;101161.47;5084125;28;20205;-74
2023/09/16 06:34:05;;;;;;;6.25;3.70;;;;;;;15.11;72.20;101167.81;5088639;28;20502;-73
2023/09/16 06:36:32;;;;;;;5.85;3.72;;;;;;;15.19;71.59;101159.34;5090181;28;20131;-77
2023/09/16 06:39:00;;;;;;;7.25;4.25;;;;;;;15.27;71.45;101172.09;5065825;28;20044;-74
2023/09/16 06:41:27;;;;;;;5.10;3.83;;;;;;;15.37;71.05;101173.97;5050024;28;20077;-78
2023/09/16 06:43:55;;;;;;;7.63;4.50;;;;;;;15.45;70.89;101173.44;5069928;28;20052;-76
2023/09/16 06:46:22;;;;;;;8.23;4.53;;;;;;;15.52;70.50;101172.03;5067522;28;20650;-71
2023/09/16 06:48:49;;;;;;;12.07;4.25;;;;;;;15.60;69.97;101175.00;5070067;28;20451;-75
2023/09/16 06:51:17;;;;;;;7.50;3.35;;;;;;;15.73;69.92;101174.16;5086716;28;20075;-76
2023/09/16 06:53:45;;;;;;;7.93;3.65;;;;;;;15.83;69.75;101159.25;5088885;28;20090;-76
2023/09/16 06:56:12;;;;;;;7.25;3.83;;;;;;;15.81;69.72;101156.72;5055483;28;20086;-73
2023/09/16 06:58:39;;;;;;;8.30;4.30;;;;;;;15.81;69.45;101163.84;5082261;28;20070;-78
2023/09/16 07:01:08;;;;;;;6.40;4.30;;;;;;;15.89;69.77;101161.47;5064761;28;21139;-72
2023/09/16 07:03:37;;;;;;;7.90;4.00;;;;;;;16.03;69.64;101161.31;5086215;28;20052;-68
2023/09/16 07:06:04;;;;;;;6.78;4.20;;;;;;;16.16;69.13;101164.75;5066563;28;20251;-74
2023/09/16 07:08:32;;;;;;;10.95;5.05;;;;;;;16.29;68.93;101163.84;5082489;28;20390;-73
2023/09/16 07:10:59;;;;;;;9.98;4.43;;;;;;;16.40;68.75;101169.22;5060033;28;20044;-71
2023/09/16 07:13:26;;;;;;;8.13;4.15;;;;;;;16.52;68.41;101162.13;5066445;28;20117;-76
2023/09/16 07:15:54;;;;;;;8.05;4.00;;;;;;;16.63;67.26;101157.69;5042020;28;20078;-72
2023/09/16 07:18:22;;;;;;;6.72;3.55;;;;;;;16.68;67.30;101158.19;5042893;28;20143;-73
2023/09/16 07:20:49;;;;;;;7.38;3.80;;;;;;;16.76;67.24;101159.47;5045110;28;20166;-73
2023/09/16 07:23:17;;;;;;;7.72;4.10;;;;;;;16.81;67.34;101158.13;5057934;28;20505;-75
2023/09/16 07:25:55;;;;;;;4.97;3.53;;;;;;;16.88;66.99;101155.84;5044816;28;20641;-74
2023/09/16 07:28:27;;;;;;;7.07;3.85;;;;;;;17.10;66.82;101155.88;5055632;28;20121;-73
2023/09/16 07:30:55;;;;;;;8.07;3.72;;;;;;;17.25;66.45;101158.34;5058700;28;20588;-73
2023/09/16 07:33:22;;;;;;;8.60;3.90;;;;;;;17.40;65.54;101155.28;5043282;28;20138;-75
2023/09/16 07:35:51;;;;;;;8.85;4.03;;;;;;;17.40;65.61;101152.63;5044483;28;20592;-74
2023/09/16 07:38:19;;;;;;;12.13;3.88;;;;;;;17.38;65.71;101157.25;5042951;28;20135;-74
2023/09/16 07:40:46;;;;;;;6.88;3.35;;;;;;;17.58;65.43;101158.31;5079013;28;20593;-74
2023/09/16 07:43:16;;;;;;;9.23;4.32;;;;;;;17.79;64.79;101142.47;5043105;28;20143;-74
2023/09/16 07:45:44;;;;;;;8.73;3.95;;;;;;;17.90;64.31;101149.56;5046539;28;20549;-74
2023/09/16 07:48:11;;;;;;;7.88;3.45;;;;;;;18.02;63.84;101142.41;5041372;28;20176;-74
2023/09/16 07:50:38;;;;;;;8.25;3.63;;;;;;;18.14;63.59;101139.56;5026921;28;20546;-74
2023/09/16 07:53:05;;;;;;;6.40;3.72;;;;;;;18.31;63.17;101140.81;5057101;28;20135;-74
2023/09/16 07:55:33;;;;;;;5.75;3.58;;;;;;;18.42;62.80;101134.63;5052074;28;20082;-74
2023/09/16 07:58:00;;;;;;;8.52;3.70;;;;;;;18.49;62.81;101135.78;5041546;28;20044;-74
2023/09/16 08:00:28;;;;;;;10.18;3.80;;;;;;;18.65;62.15;101138.84;5061048;28;20499;-75
2023/09/16 08:02:56;;;;;;;5.57;3.90;;;;;;;18.84;61.99;101139.97;5045215;28;20133;-75
2023/09/16 08:05:23;;;;;;;6.20;3.28;;;;;;;18.94;61.29;101141.72;5043395;28;20076;-74
2023/09/16 08:07:51;;;;;;;9.75;4.65;;;;;;;18.99;61.38;101138.66;5060145;28;20143;-74
2023/09/16 08:10:18;;;;;;;7.22;3.67;;;;;;;19.20;60.91;101142.13;5042692;28;20131;-73
2023/09/16 08:12:45;;;;;;;7.53;4.05;;;;;;;19.35;60.52;101142.63;5029626;28;20044;-74
2023/09/16 08:15:13;;;;;;;7.22;3.55;;;;;;;19.52;59.99;101143.81;5041079;28;20674;-74
2023/09/16 08:17:40;;;;;;;6.72;4.00;;;;;;;19.54;59.97;101139.16;5059960;28;20051;-74
2023/09/16 08:20:08;;;;;;;8.05;3.40;;;;;;;19.73;59.37;101136.59;5059290;28;20135;-74
2023/09/16 08:22:36;;;;;;;7.53;3.38;;;;;;;19.89;59.08;101146.75;5036673;28;20084;-74
2023/09/16 08:25:03;;;;;;;11.88;4.03;;;;;;;20.03;58.42;101145.50;5043782;28;20591;-73
2023/09/16 08:27:31;;;;;;;4.97;2.97;;;;;;;20.09;57.94;101136.94;5044641;28;20136;-74
2023/09/16 08:29:59;;;;;;;8.45;3.78;;;;;;;20.08;57.82;101137.88;5042679;28;20076;-74
2023/09/16 08:32:28;;;;;;;5.40;3.80;;;;;;;19.96;58.29;101137.19;5045677;28;20036;-73
2023/09/16 08:34:56;;;;;;;7.80;3.85;;;;;;;20.15;57.84;101138.19;5045046;28;20131;-72
2023/09/16 08:37:24;;;;;;;7.22;3.28;;;;;;;20.31;57.67;101134.94;5042615;28;20047;-74
2023/09/16 08:39:51;;;;;;;6.35;3.70;;;;;;;20.54;56.96;101139.06;5077469;28;20082;-72
2023/09/16 08:42:37;;;;;;;7.57;3.83;;;;;;;20.74;56.41;101135.38;5062758;28;20040;-75
2023/09/16 08:45:07;;;;;;;7.07;3.92;;;;;;;20.94;56.28;101133.50;5044307;28;20072;-73
2023/09/16 08:47:45;;;;;;;10.05;3.25;;;;;;;21.10;55.66;101138.22;5060614;28;20135;-74
2023/09/16 08:50:13;;;;;;;6.60;3.67;;;;;;;21.23;55.26;101129.88;5040571;28;20054;-75
2023/09/16 08:52:46;;;;;;;8.77;4.03;;;;;;;21.33;54.75;101129.84;5038833;28;20123;-75
2023/09/16 08:55:14;;;;;;;7.07;3.63;;;;;;;21.42;55.23;101129.81;5040584;28;20568;-75
2023/09/16 08:57:47;;;;;;;6.35;3.40;;;;;;;21.29;54.44;101137.31;5058758;28;20049;-73
2023/09/16 09:00:15;;;;;;;4.80;3.33;;;;;;;21.15;55.16;101135.09;5079755;28;20423;-76
2023/09/16 09:02:43;;;;;;;5.47;3.35;;;;;;;21.19;55.16;101132.00;5022080;28;20056;-73
2023/09/16 09:05:11;;;;;;;9.55;2.90;;;;;;;21.10;55.51;101126.69;5030441;28;20070;-75
2023/09/16 09:07:40;;;;;;;7.57;2.90;;;;;;;21.24;55.11;101132.41;5048724;28;20051;-74
2023/09/16 09:10:10;;;;;;;8.63;3.67;;;;;;;21.53;54.82;101126.09;5068969;28;20059;-73
2023/09/16 09:12:39;;;;;;;5.78;3.22;;;;;;;21.72;54.00;101115.25;5065306;28;20086;-73
2023/09/16 09:15:15;;;;;;;4.93;3.25;;;;;;;22.00;53.39;101112.53;5046994;28;20135;-73
2023/09/16 09:17:46;;;;;;;5.40;3.42;;;;;;;22.12;52.87;101116.72;5064869;28;20830;-72
2023/09/16 09:20:20;;;;;;;4.88;2.97;;;;;;;22.32;52.70;101108.50;5044011;28;20737;-74
2023/09/16 09:22:50;;;;;;;5.70;3.28;;;;;;;22.57;52.24;101113.06;5050011;28;20105;-73
2023/09/16 09:25:21;;;;;;;6.60;3.30;;;;;;;22.58;51.69;101112.06;5066462;28;20059;-73
2023/09/16 09:27:50;;;;;;;7.38;3.63;;;;;;;22.78;51.80;101111.84;5075014;28;20071;-74
2023/09/16 09:30:28;;;;;;;3.10;2.42;;;;;;;22.95;51.39;101113.66;5090590;28;20056;-74
2023/09/16 09:32:56;;;;;;;5.15;3.38;;;;;;;22.89;50.60;101111.59;5087828;28;20547;-74
2023/09/16 09:35:25;;;;;;;5.65;3.50;;;;;;;22.92;50.72;101105.91;5068174;28;20390;-74
2023/09/16 09:37:53;;;;;;;7.82;3.22;;;;;;;23.28;50.31;101097.72;5040131;28;20036;-75
2023/09/16 09:40:21;;;;;;;5.13;3.33;;;;;;;23.44;49.74;101095.09;5071731;28;20530;-73
2023/09/16 09:42:53;;;;;;;5.18;3.60;;;;;;;23.42;49.56;101099.81;5054207;28;20138;-75
2023/09/16 09:45:22;;;;;;;3.85;3.03;;;;;;;23.12;49.87;101096.66;5076435;28;20064;-73
2023/09/16 09:47:50;;;;;;;3.80;2.60;;;;;;;22.82;50.50;101089.06;5071935;28;20051;-73
2023/09/16 09:50:20;;;;;;;5.00;3.10;;;;;;;22.56;50.73;101089.03;5038041;28;20052;-73
2023/09/16 09:52:51;;;;;;;4.70;3.22;;;;;;;22.70;50.78;101092.03;5044077;28;20048;-74
2023/09/16 09:55:20;;;;;;;6.40;3.03;;;;;;;22.84;50.91;101095.13;5074611;28;20036;-74
2023/09/16 09:57:49;;;;;;;5.28;3.00;;;;;;;22.86;50.73;101085.06;5049028;28;20078;-74
2023/09/16 10:00:20;;;;;;;5.78;4.03;;;;;;;22.68;51.20;101079.75;5073596;28;20140;-74
2023/09/16 10:02:48;;;;;;;6.55;3.78;;;;;;;22.59;50.81;101081.53;5058316;28;20083;-74
2023/09/16 10:05:20;;;;;;;6.32;3.90;;;;;;;22.86;51.03;101085.06;5053992;28;20054;-73
2023/09/16 10:07:48;;;;;;;9.52;3.90;;;;;;;23.21;51.07;101076.88;5060984;28;20045;-74
2023/09/16 10:10:25;;;;;;;8.88;3.55;;;;;;;23.68;50.02;101078.22;5062487;28;20059;-74
2023/09/16 10:12:54;;;;;;;6.07;3.47;;;;;;;23.93;49.13;101082.66;5045143;28;20075;-74
2023/09/16 10:15:26;;;;;;;11.18;3.70;;;;;;;24.00;49.34;101080.13;5056932;28;20514;-73
2023/09/16 10:17:53;;;;;;;6.03;3.13;;;;;;;23.98;49.06;101076.75;5088446;28;20040;-74
2023/09/16 10:20:21;;;;;;;6.05;3.85;;;;;;;24.16;48.55;101080.13;5070892;28;20246;-74
2023/09/16 10:22:49;;;;;;;6.35;3.92;;;;;;;24.32;48.62;101082.00;5048875;28;20143;-74
2023/09/16 10:25:19;;;;;;;6.38;3.90;;;;;;;24.32;47.75;101068.53;5060527;28;20504;-74
2023/09/16 10:27:53;;;;;;;6.50;4.05;;;;;;;24.39;47.07;101066.88;5038897;28;20684;-75
2023/09/16 10:30:20;;;;;;;10.10;4.20;;;;;;;24.53;46.86;101070.72;5072119;28;20142;-73
2023/09/16 10:32:48;;;;;;;7.60;4.72;;;;;;;24.80;47.50;101069.47;5070310;28;20570;-73
2023/09/16 10:35:16;;;;;;;6.35;4.13;;;;;;;25.15;46.89;101057.44;5053050;28;20132;-74
2023/09/16 10:37:44;;;;;;;6.55;4.13;;;;;;;25.38;45.93;101052.13;5064925;28;20587;-74
2023/09/16 10:40:12;;;;;;;3.92;2.72;;;;;;;25.49;45.17;101061.69;5047562;28;20131;-74
2023/09/16 10:42:40;;;;;;;5.88;3.17;;;;;;;25.45;44.53;101054.97;5057180;28;20047;-73
2023/09/16 10:45:12;;;;;;;7.18;2.80;;;;;;;25.36;44.04;101045.25;5052734;28;20139;-74
2023/09/16 10:47:40;;;;;;;5.82;3.67;;;;;;;25.48;44.09;101046.50;5041501;28;20048;-75
2023/09/16 10:50:08;;;;;;;4.55;3.33;;;;;;;25.69;44.33;101044.00;5047610;28;20076;-72
2023/09/16 10:52:49;;;;;;;6.30;3.13;;;;;;;25.91;43.58;101039.66;5067706;28;20135;-73
2023/09/16 10:55:26;;;;;;;7.82;3.08;;;;;;;26.24;44.20;101034.00;5047491;28;20056;-73
2023/09/16 10:58:06;;;;;;;7.53;3.55;;;;;;;26.24;42.70;101037.53;5072175;28;20131;-73
2023/09/16 11:00:38;;;;;;;5.88;2.95;;;;;;;26.50;43.14;101041.72;5073503;28;20398;-74
2023/09/16 11:03:15;;;;;;;3.95;2.47;;;;;;;26.69;43.27;101038.44;5036912;28;20076;-73
2023/09/16 11:05:42;;;;;;;5.18;3.08;;;;;;;26.88;42.53;101030.81;5053683;28;20139;-74
2023/09/16 11:08:10;;;;;;;8.00;3.10;;;;;;;26.91;42.08;101031.28;5067562;28;20507;-74
2023/09/16 11:10:37;;;;;;;5.03;2.78;;;;;;;27.18;42.43;101028.94;5070816;28;20056;-74
2023/09/16 11:13:06;;;;;;;5.93;2.92;;;;;;;27.31;42.04;101033.69;5052044;28;20454;-74
2023/09/16 11:15:34;;;;;;;3.05;2.67;;;;;;;27.23;41.60;101035.47;5037154;28;20139;-73
2023/09/16 11:18:05;;;;;;;8.43;3.33;;;;;;;27.23;41.21;101024.66;5067786;28;20109;-74
2023/09/16 11:20:33;;;;;;;5.38;2.80;;;;;;;27.29;41.47;101016.81;5052051;28;20614;-74
2023/09/16 11:23:04;;;;;;;5.72;3.35;;;;;;;27.38;41.16;101023.78;5072676;28;20082;-72
2023/09/16 11:25:33;;;;;;;4.55;2.80;;;;;;;27.49;40.63;101013.31;5054918;28;20055;-74
2023/09/16 11:28:03;;;;;;;4.57;3.10;;;;;;;27.80;41.01;101017.59;5071170;28;20436;-72
2023/09/16 11:30:34;;;;;;;3.85;3.00;;;;;;;27.87;39.94;101006.81;5069783;28;20422;-74